Time;durP1;ratioP1;P1;durP2;ratioP2;P2;SDS_P1;SDS_P2;PMS_P1;PMS_P2;Temp;Humidity;BMP_temperature;BMP_pressure;BME280_temperature;BME280_humidity;BME280_pressure;Samples;Min_cycle;Max_cycle;Signal;HPM_P1;HPM_P2
2021/07/07 00:00:27;;;;;;;9.88;6.50;;;23.90;75.00;;;;;;5056993;28;20375;-72
2021/07/07 00:02:53;;;;;;;6.57;5.90;;;23.90;75.30;;;;;;5056604;28;20036;-72
2021/07/07 00:05:20;;;;;;;8.52;6.45;;;23.90;75.50;;;;;;5055272;28;20036;-72
2021/07/07 00:07:47;;;;;;;8.02;6.95;;;23.90;75.90;;;;;;5057246;28;20090;-72
2021/07/07 00:10:16;;;;;;;8.27;6.93;;;23.80;76.20;;;;;;5056506;28;20413;-72
2021/07/07 00:12:43;;;;;;;7.45;6.57;;;23.80;76.40;;;;;;5057288;28;20052;-72
2021/07/07 00:15:12;;;;;;;10.18;6.53;;;23.70;76.30;;;;;;5056558;28;20033;-72
2021/07/07 00:17:39;;;;;;;9.00;6.32;;;23.70;76.50;;;;;;5056671;28;20367;-72
2021/07/07 00:20:06;;;;;;;9.93;6.60;;;23.70;76.50;;;;;;5056336;28;20037;-73
2021/07/07 00:22:32;;;;;;;8.13;6.28;;;23.60;76.50;;;;;;5055976;28;20029;-74
2021/07/07 00:24:57;;;;;;;7.05;6.35;;;23.60;76.60;;;;;;5056569;28;20036;-73
2021/07/07 00:27:24;;;;;;;9.10;6.35;;;23.60;76.80;;;;;;5056011;28;20100;-73
2021/07/07 00:29:51;;;;;;;6.43;5.82;;;23.50;76.70;;;;;;5056104;28;20376;-72
2021/07/07 00:32:18;;;;;;;7.65;5.70;;;23.50;76.70;;;;;;5072055;28;20029;-72
2021/07/07 00:34:44;;;;;;;5.55;5.05;;;23.50;76.60;;;;;;5056017;28;20079;-73
2021/07/07 00:37:11;;;;;;;10.38;5.20;;;23.50;76.30;;;;;;5055942;28;20037;-73
2021/07/07 00:39:37;;;;;;;5.45;4.53;;;23.40;75.90;;;;;;5056249;28;20036;-73
2021/07/07 00:42:03;;;;;;;6.22;5.63;;;23.40;75.80;;;;;;5055769;28;20029;-73
2021/07/07 00:44:29;;;;;;;6.90;5.00;;;23.40;75.70;;;;;;5055991;28;20378;-72
2021/07/07 00:46:54;;;;;;;9.23;4.95;;;23.40;75.60;;;;;;5056147;28;20024;-72
2021/07/07 00:49:20;;;;;;;5.65;4.40;;;23.30;75.30;;;;;;5055554;28;20488;-72
2021/07/07 00:51:47;;;;;;;5.03;4.20;;;23.30;75.10;;;;;;5055594;28;20025;-73
2021/07/07 00:54:15;;;;;;;4.50;4.10;;;23.30;74.50;;;;;;5056311;28;20041;-72
2021/07/07 00:56:42;;;;;;;4.40;4.00;;;23.30;74.10;;;;;;5055940;28;20025;-73
2021/07/07 00:59:09;;;;;;;5.93;4.47;;;23.30;73.90;;;;;;5071064;28;20035;-72
2021/07/07 01:01:36;;;;;;;4.32;3.90;;;23.20;73.70;;;;;;5054280;28;20490;-73
2021/07/07 01:04:02;;;;;;;4.70;3.85;;;23.20;73.70;;;;;;5055607;28;20029;-73
2021/07/07 01:06:28;;;;;;;4.03;3.63;;;23.20;73.50;;;;;;5054859;28;20357;-73
2021/07/07 01:08:54;;;;;;;8.70;4.10;;;23.20;73.40;;;;;;5055301;28;20028;-73
2021/07/07 01:11:20;;;;;;;5.13;4.50;;;23.20;73.40;;;;;;5054101;28;20028;-73
2021/07/07 01:13:45;;;;;;;4.75;4.20;;;23.10;73.30;;;;;;5055485;28;20064;-73
2021/07/07 01:16:11;;;;;;;4.35;3.80;;;23.20;73.30;;;;;;5055395;28;20033;-73
2021/07/07 01:18:37;;;;;;;5.53;4.10;;;23.10;73.20;;;;;;5055660;28;20047;-74
2021/07/07 01:21:06;;;;;;;5.55;4.43;;;23.10;73.20;;;;;;5055195;28;20032;-73
2021/07/07 01:23:31;;;;;;;4.70;4.30;;;23.20;73.20;;;;;;5055228;28;20033;-73
2021/07/07 01:25:58;;;;;;;6.75;4.05;;;23.20;73.10;;;;;;5055270;28;20025;-74
2021/07/07 01:28:24;;;;;;;4.68;4.28;;;23.20;73.00;;;;;;5071164;28;20120;-72
2021/07/07 01:30:50;;;;;;;7.75;4.10;;;23.20;72.90;;;;;;5055251;28;20526;-73
2021/07/07 01:33:16;;;;;;;7.07;3.90;;;23.20;72.70;;;;;;5055270;28;20379;-74
2021/07/07 01:35:42;;;;;;;4.05;3.60;;;23.30;72.40;;;;;;5054619;28;20026;-73
2021/07/07 01:38:07;;;;;;;5.82;3.88;;;23.30;72.30;;;;;;5054943;28;20029;-73
2021/07/07 01:40:33;;;;;;;5.15;4.00;;;23.30;71.90;;;;;;5055184;28;20029;-73
2021/07/07 01:43:00;;;;;;;5.35;4.68;;;23.30;71.90;;;;;;5054749;28;20398;-72
2021/07/07 01:45:26;;;;;;;7.03;4.75;;;23.40;71.90;;;;;;5055137;28;20052;-72
2021/07/07 01:47:53;;;;;;;4.90;4.50;;;23.40;72.10;;;;;;5055698;28;20029;-73
2021/07/07 01:50:20;;;;;;;6.40;5.00;;;23.50;72.10;;;;;;5054952;28;20025;-73
2021/07/07 01:52:46;;;;;;;5.55;4.40;;;23.50;71.90;;;;;;5070216;28;20049;-73
2021/07/07 01:55:17;;;;;;;7.20;4.50;;;23.50;71.90;;;;;;5055444;28;20374;-73
2021/07/07 01:57:45;;;;;;;6.25;5.00;;;23.50;72.00;;;;;;5054625;28;20025;-72
2021/07/07 02:00:11;;;;;;;6.35;4.90;;;23.50;72.20;;;;;;5054963;28;20029;-72
2021/07/07 02:02:38;;;;;;;9.68;5.60;;;23.50;72.40;;;;;;5054564;28;20080;-76
2021/07/07 02:05:06;;;;;;;6.47;5.25;;;23.50;72.50;;;;;;5054200;28;20479;-73
2021/07/07 02:07:31;;;;;;;6.55;5.85;;;23.50;72.70;;;;;;5054398;28;20033;-73
2021/07/07 02:09:57;;;;;;;8.65;5.13;;;23.50;72.80;;;;;;5054700;28;20032;-73
2021/07/07 02:12:23;;;;;;;8.20;5.40;;;23.50;72.80;;;;;;5053234;28;20539;-73
2021/07/07 02:14:49;;;;;;;6.47;5.05;;;23.50;72.80;;;;;;5054537;28;20037;-73
2021/07/07 02:17:15;;;;;;;5.53;5.00;;;23.50;72.60;;;;;;5054269;28;20146;-73
2021/07/07 02:19:40;;;;;;;5.50;4.93;;;23.40;72.50;;;;;;5053957;28;20115;-73
2021/07/07 02:22:06;;;;;;;7.40;4.95;;;23.40;72.40;;;;;;5054121;28;20021;-72
2021/07/07 02:24:32;;;;;;;8.63;5.03;;;23.40;72.30;;;;;;5053882;28;20494;-73
2021/07/07 02:26:58;;;;;;;5.57;4.53;;;23.40;72.30;;;;;;5054512;28;20021;-72
2021/07/07 02:29:23;;;;;;;6.78;5.28;;;23.40;72.30;;;;;;5054028;28;20025;-73
2021/07/07 02:31:49;;;;;;;7.00;4.65;;;23.40;72.10;;;;;;5054072;28;20048;-73
2021/07/07 02:34:15;;;;;;;10.25;5.03;;;23.40;71.90;;;;;;5054444;28;20127;-73
2021/07/07 02:36:40;;;;;;;4.88;4.38;;;23.40;71.80;;;;;;5054173;28;20095;-74
2021/07/07 02:39:06;;;;;;;4.70;4.30;;;23.40;71.60;;;;;;5053857;28;20029;-74
2021/07/07 02:41:32;;;;;;;5.47;4.65;;;23.40;71.30;;;;;;5069678;28;20115;-74
2021/07/07 02:43:57;;;;;;;6.25;3.90;;;23.40;71.10;;;;;;5053477;28;20029;-74
2021/07/07 02:46:23;;;;;;;5.28;3.90;;;23.40;70.90;;;;;;5054071;28;20108;-74
2021/07/07 02:48:49;;;;;;;5.53;4.38;;;23.40;70.60;;;;;;5052767;28;20025;-74
2021/07/07 02:51:15;;;;;;;5.05;3.83;;;23.40;70.60;;;;;;5054583;28;20112;-74
2021/07/07 02:53:40;;;;;;;4.38;3.70;;;23.50;70.60;;;;;;5069132;28;20052;-77
2021/07/07 02:56:06;;;;;;;6.05;4.28;;;23.40;70.50;;;;;;5069013;28;20024;-74
2021/07/07 02:58:32;;;;;;;5.85;4.03;;;23.40;70.50;;;;;;5053580;28;20053;-73
2021/07/07 03:00:58;;;;;;;4.00;3.67;;;23.40;70.30;;;;;;5053561;28;20549;-73
2021/07/07 03:03:25;;;;;;;5.88;3.92;;;23.40;70.20;;;;;;5053543;28;20068;-74
2021/07/07 03:05:56;;;;;;;4.80;4.03;;;23.40;70.00;;;;;;5053615;28;20033;-74
2021/07/07 03:08:28;;;;;;;4.65;3.90;;;23.40;70.00;;;;;;5053522;28;20368;-73
2021/07/07 03:10:54;;;;;;;4.60;4.20;;;23.50;69.70;;;;;;5053515;28;20049;-74
2021/07/07 03:13:21;;;;;;;4.53;3.95;;;23.40;69.70;;;;;;5053411;28;20037;-73
2021/07/07 03:15:47;;;;;;;4.15;3.75;;;23.40;69.60;;;;;;5053431;28;20033;-74
2021/07/07 03:18:13;;;;;;;7.80;4.18;;;23.40;69.50;;;;;;5053182;28;20028;-73
2021/07/07 03:20:41;;;;;;;4.30;3.90;;;23.40;69.60;;;;;;5053361;28;20029;-74
2021/07/07 03:23:08;;;;;;;4.30;3.90;;;23.40;69.60;;;;;;5053520;28;20533;-73
2021/07/07 03:25:34;;;;;;;6.90;4.57;;;23.40;69.60;;;;;;5069340;28;20374;-73
2021/07/07 03:28:00;;;;;;;5.68;4.13;;;23.40;69.60;;;;;;5053322;28;20029;-73
2021/07/07 03:30:26;;;;;;;8.02;4.10;;;23.40;69.80;;;;;;5055177;28;20127;-73
2021/07/07 03:32:56;;;;;;;6.18;4.13;;;23.30;69.60;;;;;;5057595;28;20366;-74
2021/07/07 03:35:23;;;;;;;5.68;4.00;;;23.40;69.70;;;;;;5072641;28;20127;-73
2021/07/07 03:37:49;;;;;;;4.50;3.95;;;23.40;69.60;;;;;;5057261;28;20029;-73
2021/07/07 03:40:16;;;;;;;4.20;3.80;;;23.40;69.50;;;;;;5057124;28;20029;-73
2021/07/07 03:42:42;;;;;;;4.55;4.03;;;23.40;69.40;;;;;;5057490;28;20043;-74
2021/07/07 03:45:09;;;;;;;4.75;4.00;;;23.50;69.40;;;;;;5057135;28;20420;-73
2021/07/07 03:47:35;;;;;;;4.50;4.10;;;23.50;69.20;;;;;;5057381;28;20040;-72
2021/07/07 03:50:03;;;;;;;4.93;3.67;;;23.50;68.90;;;;;;5057065;28;20463;-73
2021/07/07 03:52:28;;;;;;;5.50;4.22;;;23.60;68.90;;;;;;5057119;28;20056;-72
2021/07/07 03:54:54;;;;;;;4.88;4.40;;;23.60;68.80;;;;;;5057363;28;20041;-73
2021/07/07 03:57:19;;;;;;;5.72;4.40;;;23.60;69.50;;;;;;5057383;28;20471;-73
2021/07/07 03:59:46;;;;;;;4.97;3.67;;;23.70;68.80;;;;;;5056517;28;20029;-74
2021/07/07 04:02:12;;;;;;;5.95;4.07;;;23.80;68.70;;;;;;5056826;28;20116;-73
2021/07/07 04:04:38;;;;;;;5.03;4.25;;;23.90;68.40;;;;;;5056770;28;20445;-74
2021/07/07 04:07:04;;;;;;;4.53;3.95;;;23.80;68.20;;;;;;5056707;28;20057;-74
2021/07/07 04:09:30;;;;;;;5.75;3.97;;;23.90;68.00;;;;;;5057033;28;20371;-73
2021/07/07 04:11:57;;;;;;;3.85;3.55;;;23.90;67.80;;;;;;5056935;28;20021;-74
2021/07/07 04:14:26;;;;;;;7.78;3.97;;;23.90;67.80;;;;;;5056754;28;20061;-75
2021/07/07 04:16:56;;;;;;;4.22;3.83;;;24.00;67.60;;;;;;5056266;28;20024;-73
2021/07/07 04:19:22;;;;;;;4.78;3.40;;;24.00;67.40;;;;;;5056967;28;20064;-73
2021/07/07 04:21:49;;;;;;;4.40;3.95;;;24.00;67.30;;;;;;5056517;28;20057;-73
2021/07/07 04:24:16;;;;;;;5.97;4.03;;;24.00;67.10;;;;;;5056579;28;20421;-73
2021/07/07 04:26:42;;;;;;;4.47;3.75;;;24.00;66.70;;;;;;5056339;28;20055;-73
2021/07/07 04:29:07;;;;;;;4.22;3.78;;;24.10;66.70;;;;;;5056669;28;20057;-74
2021/07/07 04:31:34;;;;;;;7.18;4.05;;;24.10;66.60;;;;;;5056783;28;20028;-73
2021/07/07 04:34:02;;;;;;;4.28;3.88;;;24.20;66.60;;;;;;5055932;28;20040;-74
2021/07/07 04:36:28;;;;;;;6.68;3.90;;;24.20;66.40;;;;;;5055989;28;20025;-73
2021/07/07 04:38:53;;;;;;;9.02;4.00;;;24.30;66.30;;;;;;5056168;28;20360;-75
2021/07/07 04:41:19;;;;;;;4.15;3.38;;;24.40;66.20;;;;;;5055153;28;20017;-74
2021/07/07 04:43:45;;;;;;;4.13;3.72;;;24.40;66.60;;;;;;5055586;28;20033;-74
2021/07/07 04:46:11;;;;;;;4.85;3.83;;;24.40;65.70;;;;;;5055594;28;20509;-73
2021/07/07 04:48:36;;;;;;;5.00;3.90;;;24.40;65.60;;;;;;5055435;28;20438;-75
2021/07/07 04:51:02;;;;;;;6.50;4.40;;;24.40;65.60;;;;;;5071359;28;20028;-75
2021/07/07 04:53:28;;;;;;;4.13;3.50;;;24.40;65.60;;;;;;5056141;28;20059;-74
2021/07/07 04:55:53;;;;;;;3.88;3.53;;;24.50;65.40;;;;;;5055681;28;20115;-73
2021/07/07 04:58:19;;;;;;;6.40;3.45;;;24.60;65.20;;;;;;5055635;28;20021;-74
2021/07/07 05:00:45;;;;;;;3.55;3.17;;;24.70;65.10;;;;;;5055780;28;20040;-75
2021/07/07 05:03:11;;;;;;;6.68;3.40;;;24.60;64.90;;;;;;5055831;28;20025;-74
2021/07/07 05:05:37;;;;;;;5.85;3.90;;;24.70;64.80;;;;;;5055460;28;20025;-74
2021/07/07 05:08:04;;;;;;;3.90;3.50;;;24.70;64.80;;;;;;5055758;28;20029;-74
2021/07/07 05:10:31;;;;;;;4.97;3.83;;;24.70;64.60;;;;;;5055250;28;20112;-74
2021/07/07 05:13:01;;;;;;;6.68;3.75;;;24.80;64.50;;;;;;5055478;28;20029;-74
2021/07/07 05:15:28;;;;;;;4.30;3.40;;;24.90;64.40;;;;;;5055644;28;20087;-74
2021/07/07 05:17:53;;;;;;;5.10;3.47;;;25.00;64.20;;;;;;5055405;28;20052;-74
2021/07/07 05:20:19;;;;;;;4.65;3.47;;;25.10;64.00;;;;;;5055307;28;20052;-73
2021/07/07 05:22:45;;;;;;;4.93;3.80;;;25.20;63.90;;;;;;5055400;28;20025;-74
2021/07/07 05:25:12;;;;;;;4.80;3.75;;;25.30;63.70;;;;;;5055166;28;20032;-74
2021/07/07 05:27:38;;;;;;;10.00;4.35;;;25.40;63.60;;;;;;5055738;28;20036;-74
2021/07/07 05:30:06;;;;;;;5.72;3.40;;;25.40;64.10;;;;;;5054774;28;20021;-75
2021/07/07 05:32:31;;;;;;;4.45;3.83;;;25.50;63.40;;;;;;5055206;28;20037;-74
2021/07/07 05:34:57;;;;;;;4.20;3.50;;;25.60;63.30;;;;;;5055466;28;20032;-74
2021/07/07 05:37:24;;;;;;;6.38;3.72;;;25.70;63.30;;;;;;5055242;28;20033;-75
2021/07/07 05:39:50;;;;;;;8.20;3.58;;;25.90;63.10;;;;;;5054997;28;20021;-74
2021/07/07 05:42:20;;;;;;;8.50;3.65;;;26.00;62.60;;;;;;5055097;28;20424;-74
2021/07/07 05:44:52;;;;;;;8.20;3.75;;;26.20;62.40;;;;;;5054870;28;20112;-75
2021/07/07 05:47:18;;;;;;;5.78;3.45;;;26.30;62.10;;;;;;5054768;28;20032;-75
2021/07/07 05:49:44;;;;;;;4.70;3.60;;;26.40;61.90;;;;;;5054645;28;20036;-74
2021/07/07 05:52:11;;;;;;;9.35;3.65;;;26.50;61.70;;;;;;5069798;28;20025;-74
2021/07/07 05:54:37;;;;;;;7.28;3.63;;;26.60;61.40;;;;;;5054037;28;20029;-74
2021/07/07 05:57:03;;;;;;;4.45;3.40;;;26.80;60.90;;;;;;5070093;28;20383;-74
2021/07/07 05:59:29;;;;;;;4.15;3.70;;;26.90;60.70;;;;;;5054243;28;20029;-74
2021/07/07 06:01:54;;;;;;;4.35;3.67;;;27.00;60.50;;;;;;5054317;28;20036;-74
2021/07/07 06:04:20;;;;;;;3.90;3.50;;;27.00;60.30;;;;;;5054442;28;20459;-76
2021/07/07 06:06:46;;;;;;;5.95;4.20;;;27.00;60.10;;;;;;5054205;28;20036;-74
2021/07/07 06:09:11;;;;;;;10.65;3.75;;;27.10;60.10;;;;;;5069331;28;20021;-74
2021/07/07 06:11:37;;;;;;;5.20;3.40;;;27.10;60.10;;;;;;5054199;28;20147;-74
2021/07/07 06:14:03;;;;;;;4.63;3.42;;;27.20;60.00;;;;;;5054451;28;20040;-73
2021/07/07 06:16:29;;;;;;;13.25;4.40;;;27.20;60.00;;;;;;5054143;28;20052;-74
2021/07/07 06:18:55;;;;;;;6.72;3.85;;;27.30;59.70;;;;;;5054100;28;20078;-74
2021/07/07 06:21:21;;;;;;;6.80;3.83;;;27.30;59.50;;;;;;5054341;28;20112;-74
2021/07/07 06:23:47;;;;;;;5.93;3.90;;;27.40;59.40;;;;;;5053965;28;20552;-74
2021/07/07 06:26:12;;;;;;;6.15;3.80;;;27.50;59.30;;;;;;5054435;28;20108;-74
2021/07/07 06:28:38;;;;;;;6.70;3.70;;;27.60;59.20;;;;;;5054014;28;20036;-74
2021/07/07 06:31:05;;;;;;;6.35;3.40;;;27.70;59.00;;;;;;5053863;28;20033;-74
2021/07/07 06:33:31;;;;;;;14.18;4.30;;;27.80;58.70;;;;;;5054304;28;20037;-74
2021/07/07 06:35:57;;;;;;;4.10;3.53;;;27.90;58.50;;;;;;5054540;28;20075;-74
2021/07/07 06:38:22;;;;;;;5.47;3.13;;;28.00;58.30;;;;;;5053829;28;20063;-74
2021/07/07 06:40:48;;;;;;;8.15;3.20;;;28.00;57.70;;;;;;5053570;28;20048;-73
2021/07/07 06:43:14;;;;;;;12.85;4.30;;;28.00;57.60;;;;;;5053280;28;20021;-73
2021/07/07 06:45:40;;;;;;;14.50;5.32;;;28.00;57.50;;;;;;5053545;28;20090;-74
2021/07/07 06:48:07;;;;;;;8.38;3.58;;;28.10;57.40;;;;;;5069073;28;20029;-73
2021/07/07 06:50:33;;;;;;;8.43;3.65;;;28.10;56.90;;;;;;5053191;28;20070;-74
2021/07/07 06:52:59;;;;;;;6.72;3.85;;;28.10;56.70;;;;;;5053305;28;20056;-74
2021/07/07 06:55:25;;;;;;;6.32;3.42;;;28.10;56.70;;;;;;5053891;28;20040;-73
2021/07/07 06:57:50;;;;;;;4.85;3.53;;;28.00;56.70;;;;;;5053563;28;20422;-73
2021/07/07 07:00:18;;;;;;;17.38;5.32;;;28.00;56.80;;;;;;5053511;28;20032;-73
2021/07/07 07:02:44;;;;;;;5.53;4.13;;;28.10;56.80;;;;;;5053124;28;20054;-73
2021/07/07 07:05:12;;;;;;;5.25;3.90;;;28.20;56.90;;;;;;5052476;28;20383;-73
2021/07/07 07:07:38;;;;;;;8.93;4.20;;;28.30;57.00;;;;;;5053748;28;20047;-73
2021/07/07 07:10:05;;;;;;;13.63;4.88;;;28.40;57.10;;;;;;5053704;28;20451;-74
2021/07/07 07:12:31;;;;;;;9.32;4.15;;;28.60;57.00;;;;;;5051836;28;20037;-73
2021/07/07 07:14:57;;;;;;;7.13;3.75;;;28.60;56.80;;;;;;5052440;28;20474;-75
2021/07/07 07:17:25;;;;;;;18.75;5.20;;;28.70;56.80;;;;;;5053285;28;20035;-75
2021/07/07 07:19:51;;;;;;;13.20;5.35;;;28.80;56.60;;;;;;5053358;28;20051;-74
2021/07/07 07:22:17;;;;;;;16.88;5.30;;;28.90;56.20;;;;;;5053087;28;20102;-74
2021/07/07 07:24:44;;;;;;;30.98;7.30;;;29.00;56.00;;;;;;5052433;28;20029;-74
2021/07/07 07:27:10;;;;;;;11.40;4.22;;;29.00;55.60;;;;;;5053308;28;20029;-74
2021/07/07 07:29:40;;;;;;;17.20;3.97;;;29.10;55.30;;;;;;5053233;28;20025;-75
2021/07/07 07:32:08;;;;;;;10.07;4.13;;;29.10;54.90;;;;;;5053535;28;20100;-75
2021/07/07 07:34:34;;;;;;;5.10;3.10;;;29.10;54.60;;;;;;5053082;28;20047;-75
2021/07/07 07:37:02;;;;;;;11.27;3.17;;;29.00;54.40;;;;;;5068763;28;20029;-76
2021/07/07 07:39:38;;;;;;;12.32;3.25;;;29.00;54.30;;;;;;5053160;28;20025;-75
2021/07/07 07:42:04;;;;;;;4.22;3.58;;;29.00;54.20;;;;;;5053204;28;20025;-76
2021/07/07 07:44:30;;;;;;;3.58;3.22;;;29.10;54.30;;;;;;5052950;28;20025;-75
2021/07/07 07:46:58;;;;;;;4.30;3.17;;;29.20;54.30;;;;;;5053155;28;20108;-75
2021/07/07 07:49:24;;;;;;;6.32;3.00;;;29.20;54.30;;;;;;5053655;28;20033;-75
2021/07/07 07:51:50;;;;;;;4.78;3.35;;;29.30;54.20;;;;;;5052852;28;20029;-75
2021/07/07 07:54:16;;;;;;;8.02;3.30;;;29.40;53.90;;;;;;5053096;28;20045;-74
2021/07/07 07:56:41;;;;;;;8.68;3.45;;;29.50;53.90;;;;;;5052706;28;20032;-74
2021/07/07 07:59:07;;;;;;;5.47;3.03;;;29.70;53.60;;;;;;5052908;28;20029;-74
2021/07/07 08:01:34;;;;;;;6.97;3.40;;;29.80;53.30;;;;;;5053184;28;20056;-75
2021/07/07 08:04:01;;;;;;;5.07;3.00;;;29.90;52.70;;;;;;5053178;28;20119;-75
2021/07/07 08:06:27;;;;;;;4.18;3.05;;;30.00;52.40;;;;;;5050920;28;20025;-74
2021/07/07 08:08:57;;;;;;;6.40;2.88;;;30.10;52.00;;;;;;5052689;28;20376;-75
2021/07/07 08:11:23;;;;;;;6.40;3.40;;;30.20;51.80;;;;;;5052467;28;20028;-73
2021/07/07 08:13:48;;;;;;;7.97;3.25;;;30.30;51.50;;;;;;5068947;28;20043;-74
2021/07/07 08:16:14;;;;;;;6.13;3.30;;;30.40;51.30;;;;;;5053294;28;20467;-74
2021/07/07 08:18:40;;;;;;;5.15;3.17;;;30.50;51.10;;;;;;5056512;28;20405;-74
2021/07/07 08:21:06;;;;;;;4.60;3.45;;;30.50;51.10;;;;;;5056690;28;20029;-74
2021/07/07 08:23:32;;;;;;;8.10;3.25;;;30.60;51.10;;;;;;5056493;28;20032;-74
2021/07/07 08:25:58;;;;;;;4.63;3.20;;;30.70;51.10;;;;;;5056359;28;20037;-74
2021/07/07 08:28:24;;;;;;;4.93;3.50;;;30.80;51.00;;;;;;5056270;28;20107;-74
2021/07/07 08:30:50;;;;;;;7.43;3.50;;;31.00;50.70;;;;;;5056145;28;20056;-76
2021/07/07 08:33:17;;;;;;;8.40;4.22;;;31.20;50.50;;;;;;5055763;28;20064;-74
2021/07/07 08:35:43;;;;;;;4.95;3.45;;;31.50;50.40;;;;;;5055849;28;20029;-74
2021/07/07 08:38:08;;;;;;;6.45;3.72;;;31.70;50.00;;;;;;5056083;28;20391;-74
2021/07/07 08:40:34;;;;;;;7.00;3.28;;;31.90;49.80;;;;;;5056451;28;20025;-73
2021/07/07 08:43:00;;;;;;;4.03;3.45;;;32.10;49.60;;;;;;5056092;28;20032;-76
2021/07/07 08:45:26;;;;;;;8.13;3.47;;;32.30;49.30;;;;;;5056176;28;20052;-73
2021/07/07 08:47:52;;;;;;;8.88;3.85;;;32.40;48.90;;;;;;5056176;28;20078;-75
2021/07/07 08:50:25;;;;;;;7.15;3.20;;;32.60;48.70;;;;;;5056484;28;20028;-75
2021/07/07 08:52:51;;;;;;;3.83;3.28;;;32.70;48.00;;;;;;5055728;28;20041;-74
2021/07/07 08:55:19;;;;;;;5.65;3.63;;;32.80;48.00;;;;;;5055507;28;20045;-75
2021/07/07 08:57:45;;;;;;;8.43;3.40;;;32.80;47.80;;;;;;5055627;28;20094;-75
2021/07/07 09:00:33;;;;;;;9.73;3.80;;;32.70;47.70;;;;;;5055671;28;20090;-74
2021/07/07 09:03:08;;;;;;;7.15;3.55;;;32.70;47.40;;;;;;5055717;28;20456;-74
2021/07/07 09:05:56;;;;;;;4.75;3.40;;;32.70;47.30;;;;;;5055647;28;20060;-74
2021/07/07 09:08:23;;;;;;;5.47;3.72;;;32.70;47.20;;;;;;5055485;28;20086;-75
2021/07/07 09:10:49;;;;;;;4.30;3.42;;;32.70;47.20;;;;;;5055668;28;20048;-75
2021/07/07 09:13:17;;;;;;;8.18;3.80;;;32.60;47.20;;;;;;5055450;28;20021;-75
2021/07/07 09:15:44;;;;;;;6.20;3.67;;;32.50;47.40;;;;;;5055385;28;20025;-74
2021/07/07 09:18:33;;;;;;;4.85;3.70;;;32.40;47.60;;;;;;5055544;28;20112;-75
2021/07/07 09:20:59;;;;;;;4.95;3.70;;;32.40;47.30;;;;;;5055670;28;20064;-76
2021/07/07 09:23:27;;;;;;;7.05;3.80;;;32.40;47.60;;;;;;5055241;28;20108;-74
2021/07/07 09:26:03;;;;;;;7.22;3.80;;;32.30;47.80;;;;;;5055813;28;20363;-75
2021/07/07 09:28:36;;;;;;;5.72;3.80;;;32.30;47.80;;;;;;5054768;28;20032;-75
2021/07/07 09:31:22;;;;;;;;;;;32.50;47.90;;;;;;5055294;28;20097;-75
2021/07/07 09:33:48;;;;;;;7.25;3.85;;;32.70;48.30;;;;;;5055381;28;20374;-75
2021/07/07 09:36:25;;;;;;;6.00;4.00;;;32.90;47.90;;;;;;5054932;28;20025;-76
2021/07/07 09:38:53;;;;;;;5.65;3.72;;;33.30;47.70;;;;;;5053817;28;20025;-75
2021/07/07 09:41:20;;;;;;;5.32;3.20;;;33.60;47.20;;;;;;5054902;28;20459;-75
2021/07/07 09:43:51;;;;;;;5.45;3.35;;;34.00;46.80;;;;;;5054976;28;20029;-75
2021/07/07 09:46:18;;;;;;;5.03;3.58;;;34.30;46.40;;;;;;5055135;28;20071;-74
2021/07/07 09:48:45;;;;;;;4.70;3.47;;;34.60;46.40;;;;;;5055396;28;20021;-74
2021/07/07 09:51:10;;;;;;;3.65;3.35;;;34.70;45.80;;;;;;5054731;28;20079;-74
2021/07/07 09:53:36;;;;;;;5.97;3.20;;;34.80;45.60;;;;;;5054934;28;20414;-74
2021/07/07 09:56:03;;;;;;;3.40;3.08;;;35.00;45.40;;;;;;5054576;28;20025;-76
2021/07/07 09:58:30;;;;;;;4.47;3.63;;;35.20;45.30;;;;;;5054711;28;20033;-75
2021/07/07 10:00:55;;;;;;;5.05;3.38;;;35.30;45.20;;;;;;5054382;28;20029;-74
2021/07/07 10:03:22;;;;;;;8.07;3.40;;;35.40;45.00;;;;;;5053642;28;20036;-74
2021/07/07 10:05:48;;;;;;;3.80;3.33;;;35.60;44.90;;;;;;5054756;28;20479;-74
2021/07/07 10:08:14;;;;;;;5.55;3.45;;;36.00;44.80;;;;;;5054486;28;20379;-75
2021/07/07 10:10:41;;;;;;;6.78;3.35;;;36.40;44.50;;;;;;5054492;28;20509;-74
2021/07/07 10:13:09;;;;;;;4.63;3.15;;;36.70;43.80;;;;;;5053883;28;20459;-73
2021/07/07 10:15:36;;;;;;;4.85;3.30;;;36.80;43.50;;;;;;5054060;28;20041;-74
2021/07/07 10:18:04;;;;;;;5.47;3.30;;;36.80;43.30;;;;;;5053958;28;20029;-76
2021/07/07 10:20:30;;;;;;;4.28;3.17;;;36.80;43.40;;;;;;5054061;28;20025;-75
2021/07/07 10:22:57;;;;;;;10.55;3.20;;;37.10;43.40;;;;;;5054400;28;20036;-75
2021/07/07 10:25:28;;;;;;;5.82;2.92;;;37.40;43.20;;;;;;5054162;28;20033;-74
2021/07/07 10:27:56;;;;;;;4.20;3.00;;;37.50;42.90;;;;;;5054211;28;20021;-74
2021/07/07 10:30:59;;;;;;;8.27;3.13;;;37.90;42.90;;;;;;5069808;28;20025;-73
2021/07/07 10:33:36;;;;;;;3.28;2.78;;;38.30;42.00;;;;;;5053663;28;20071;-74
2021/07/07 10:36:17;;;;;;;5.35;3.00;;;38.30;41.50;;;;;;5053805;28;20116;-74
2021/07/07 10:38:59;;;;;;;4.53;2.90;;;38.40;41.20;;;;;;5053860;28;20025;-74
2021/07/07 10:41:44;;;;;;;4.70;3.17;;;38.70;41.20;;;;;;5053496;28;20036;-75
2021/07/07 10:44:27;;;;;;;8.50;3.90;;;38.90;40.70;;;;;;5053503;28;20025;-74
2021/07/07 10:46:57;;;;;;;7.25;2.78;;;39.30;40.40;;;;;;5054454;28;20040;-75
2021/07/07 10:49:27;;;;;;;5.03;2.60;;;39.60;40.00;;;;;;5053634;28;20490;-75
2021/07/07 10:51:55;;;;;;;3.63;2.42;;;39.90;39.90;;;;;;5053731;28;20025;-75
2021/07/07 10:54:25;;;;;;;3.13;2.70;;;40.20;39.20;;;;;;5054159;28;20052;-75
2021/07/07 10:56:52;;;;;;;5.22;2.58;;;40.40;38.70;;;;;;5053473;28;20383;-75
2021/07/07 10:59:35;;;;;;;7.00;2.60;;;40.60;38.10;;;;;;5052896;28;20463;-75
2021/07/07 11:02:07;;;;;;;5.47;2.60;;;40.20;37.90;;;;;;5053409;28;20033;-75
2021/07/07 11:04:36;;;;;;;4.18;2.40;;;39.90;38.50;;;;;;5053564;28;20067;-75
2021/07/07 11:07:23;;;;;;;6.80;2.60;;;39.80;38.90;;;;;;5053496;28;20408;-75
2021/07/07 11:09:52;;;;;;;6.57;2.70;;;40.00;38.90;;;;;;5053896;28;20093;-74
2021/07/07 11:12:39;;;;;;;6.22;2.78;;;40.20;38.70;;;;;;5053466;28;20025;-76
2021/07/07 11:15:18;;;;;;;3.55;2.40;;;40.20;38.60;;;;;;5042214;28;20049;-75
2021/07/07 11:17:52;;;;;;;9.25;2.92;;;40.00;38.60;;;;;;5053670;28;20039;-75
2021/07/07 11:20:21;;;;;;;10.63;2.90;;;39.90;38.80;;;;;;5053429;28;20021;-76
2021/07/07 11:23:08;;;;;;;5.88;2.63;;;40.20;38.70;;;;;;5053422;28;20032;-76
2021/07/07 11:25:36;;;;;;;3.55;2.20;;;40.60;38.30;;;;;;5053097;28;20116;-75
2021/07/07 11:28:04;;;;;;;8.43;4.28;;;41.00;37.90;;;;;;5051962;28;20378;-76
2021/07/07 11:30:30;;;;;;;3.45;2.42;;;41.40;37.50;;;;;;5053862;28;20032;-75
2021/07/07 11:33:00;;;;;;;6.03;2.50;;;41.70;37.20;;;;;;5053571;28;20104;-76
2021/07/07 11:35:29;;;;;;;2.40;2.20;;;42.00;37.20;;;;;;5053385;28;20098;-76
2021/07/07 11:37:58;;;;;;;6.18;2.58;;;42.10;37.10;;;;;;5053090;28;20083;-75
2021/07/07 11:40:25;;;;;;;6.28;2.30;;;42.40;36.80;;;;;;5053188;28;20063;-76
2021/07/07 11:43:06;;;;;;;3.55;2.30;;;42.50;36.50;;;;;;5053299;28;20036;-74
2021/07/07 11:45:41;;;;;;;7.10;2.30;;;42.70;36.40;;;;;;5052816;28;20045;-75
2021/07/07 11:50:48;;;;;;;4.15;2.55;;;43.20;36.10;;;;;;5053236;28;20050;-76
2021/07/07 11:53:15;;;;;;;3.42;2.47;;;43.40;35.70;;;;;;5056885;28;20145;-76
2021/07/07 11:55:50;;;;;;;2.90;2.50;;;43.70;35.60;;;;;;5056866;28;20060;-76
2021/07/07 11:58:26;;;;;;;5.10;2.47;;;43.90;35.40;;;;;;5057458;28;20035;-76
2021/07/07 12:00:54;;;;;;;3.92;2.40;;;44.20;35.00;;;;;;5056710;28;20479;-76
2021/07/07 12:03:22;;;;;;;6.68;2.75;;;44.30;34.80;;;;;;5056837;28;20025;-76
2021/07/07 12:06:01;;;;;;;4.45;2.95;;;44.40;34.60;;;;;;5057085;28;20025;-76
2021/07/07 12:08:50;;;;;;;5.93;4.25;;;44.50;34.60;;;;;;5057333;28;20029;-76
2021/07/07 12:11:19;;;;;;;6.88;2.60;;;44.70;34.70;;;;;;5056430;28;20072;-75
2021/07/07 12:13:50;;;;;;;7.72;2.72;;;44.90;34.60;;;;;;5056384;28;20036;-74
2021/07/07 12:16:17;;;;;;;3.53;2.50;;;45.00;34.40;;;;;;5057080;28;20047;-74
2021/07/07 12:18:44;;;;;;;3.20;2.88;;;45.20;34.30;;;;;;5056410;28;20394;-75
2021/07/07 12:21:22;;;;;;;3.70;2.28;;;45.40;34.10;;;;;;5056591;28;20086;-74
2021/07/07 12:23:55;;;;;;;5.47;2.40;;;45.70;33.80;;;;;;5056700;28;20029;-76
2021/07/07 12:26:43;;;;;;;5.20;2.42;;;45.80;33.80;;;;;;5056261;28;20071;-75
2021/07/07 12:29:18;;;;;;;4.78;2.35;;;45.90;33.50;;;;;;5056619;28;20071;-75
2021/07/07 12:31:44;;;;;;;4.95;2.20;;;45.90;33.50;;;;;;5071805;28;20037;-74
2021/07/07 12:34:12;;;;;;;3.75;2.17;;;46.00;33.60;;;;;;5056371;28;20086;-75
2021/07/07 12:36:39;;;;;;;3.75;2.10;;;46.10;33.50;;;;;;5056384;28;20104;-77
2021/07/07 12:39:16;;;;;;;4.38;1.80;;;45.80;33.40;;;;;;5056441;28;20029;-77
2021/07/07 12:41:46;;;;;;;5.25;2.28;;;45.00;33.60;;;;;;5056110;28;20375;-82
2021/07/07 12:44:12;;;;;;;4.43;2.22;;;44.80;33.80;;;;;;5056237;28;20064;-78
2021/07/07 12:46:55;;;;;;;7.45;2.65;;;45.10;33.80;;;;;;5056644;28;20098;-77
2021/07/07 12:49:35;;;;;;;3.60;2.03;;;45.40;33.90;;;;;;5056056;28;20021;-77
2021/07/07 12:52:24;;;;;;;5.20;2.03;;;45.80;33.40;;;;;;5056161;28;20036;-79